Share

Wallblake, Anguilla

Concordia (ISAINTMA3) Elev 92 ft | 18.07 °N, 63.07 °W | Change Station

Current weather conditions updated 1 second ago

Scattered Clouds
Scattered Clouds
76.1 °F
Feels Like 77 °F
N
4.3
Wind Variable Wind from ESE
Gusts 4.3 mph
Sunrise 5:54 AM
Sunset 6:29 PM
Moon Waning Gibbous

Today is forecast to be Much Cooler than yesterday. A few thunderstorms possible.

Pressure 29.98 in
Visibility 6.2 miles
Clouds Scattered Clouds 2100 ft
Scattered Clouds 3700 ft
Heat Index 77 °F
Dew Point 70 °F
Humidity 80%
Rainfall 0.04 in
Snow Depth Not available.
UV 0 out of 16
Pollen Not available.
Air Quality Not available.
Flu Activity Not available.
METAR TNCM 171000Z 08012KT 9999 SCT021 SCT037 25/20 Q1015 A2999

More Conditions Fewer Conditions

Pressure 29.98 in
Visibility 6.2 miles
Clouds Scattered Clouds 2100 ft
Scattered Clouds 3700 ft
Heat Index 77 °F
Dew Point 70 °F
Humidity 80%
Rainfall 0.04 in
Snow Depth Not available.
UV 0 out of 16
Pollen Not available.
Air Quality Not available.
Flu Activity Not available.
METAR TNCM 171000Z 08012KT 9999 SCT021 SCT037 25/20 Q1015 A2999

More Conditions Fewer Conditions

10-Day Forecast

Almanac

Astronomy

Apr. 17, 2014 Rise Set
Actual Time 5:54 AM AST 6:29 PM AST
Civil Twilight 5:31 AM AST 6:51 PM AST
Nautical Twilight 5:05 AM AST 7:17 PM AST
Astronomical Twilight 4:39 AM AST 7:44 PM AST
Moon 8:54 PM AST 7:36 AM AST
Length of Visible Light 13h 19m
Length of Day
12h 35m
Tomorrow will be 0m 58s longer.
Waning Gibbous, 95% of the Moon is Illuminated
Today
Waning Gibbous
Apr 22
Last Quarter
Apr 29
New
May 6
First Quarter
May 14
Full

Yesterday's Extremes

Country Highs Country Lows

Community

  • Sunset over the Bay
    Sunset over the Bay
  • symphony in blue....
    symphony in blue....
  • Dawn Surprise
    Dawn Surprise
  • Yucca delight
    Yucca delight
  • Sunset inside of the Ocean
    Sunset inside of the Ocean

WunderPhotos

Upload Photos

1,701,901 photos uploaded!

WunderBlogs® & News

Nearby

Snow Depth

Not available.

Coastal Water Temperatures

Place Temperature
No Stations Reporting

Earthquake Activity

City Distance Mag. Time & Date
No recent earthquake activity has been reported nearby.
Minimum magnitude displayed is 2.5.

Nearby Weather Stations

Station Location Temp. Heat Index Dew Point Humidity Wind Precip. Elev Updated Type
Concordia, Saint-Martin 76.1 °F 77 °F 70 °F 80% ESE  at  4.3 mph 0.00 in / hr 92 ft 6:37 AM AST Rapid Fire

Show More Stations Show Fewer Stations

What do you think?

We're not finished. Please let us know what you like, what you don't like, and what you are still missing.